sensor_id;sensor_type;location;lat;lon;timestamp;temperature;humidity
27016;DHT22;14557;0.000;0.000;2024-01-15T00:02:22;21.40;51.60
27016;DHT22;14557;0.000;0.000;2024-01-15T00:04:48;21.30;51.70
27016;DHT22;14557;0.000;0.000;2024-01-15T00:07:13;21.30;51.80
27016;DHT22;14557;0.000;0.000;2024-01-15T00:09:39;21.20;51.80
27016;DHT22;14557;0.000;0.000;2024-01-15T00:12:05;21.20;51.90
27016;DHT22;14557;0.000;0.000;2024-01-15T00:14:31;21.10;51.90
27016;DHT22;14557;0.000;0.000;2024-01-15T00:16:57;21.10;51.90
27016;DHT22;14557;0.000;0.000;2024-01-15T00:19:23;21.00;51.90
27016;DHT22;14557;0.000;0.000;2024-01-15T00:21:49;21.00;52.00
27016;DHT22;14557;0.000;0.000;2024-01-15T00:24:15;21.00;51.90
27016;DHT22;14557;0.000;0.000;2024-01-15T00:26:41;21.00;52.00
27016;DHT22;14557;0.000;0.000;2024-01-15T00:29:08;21.00;52.20
27016;DHT22;14557;0.000;0.000;2024-01-15T00:31:34;20.90;52.40
27016;DHT22;14557;0.000;0.000;2024-01-15T00:34:00;21.00;52.70
27016;DHT22;14557;0.000;0.000;2024-01-15T00:36:26;20.90;52.80
27016;DHT22;14557;0.000;0.000;2024-01-15T00:38:52;20.90;52.80
27016;DHT22;14557;0.000;0.000;2024-01-15T00:41:18;20.90;52.80
27016;DHT22;14557;0.000;0.000;2024-01-15T00:43:45;20.90;52.90
27016;DHT22;14557;0.000;0.000;2024-01-15T00:46:11;20.90;53.20
27016;DHT22;14557;0.000;0.000;2024-01-15T00:48:37;20.80;53.60
27016;DHT22;14557;0.000;0.000;2024-01-15T00:51:04;20.80;53.80
27016;DHT22;14557;0.000;0.000;2024-01-15T00:53:30;20.80;53.90
27016;DHT22;14557;0.000;0.000;2024-01-15T00:55:56;20.80;53.90
27016;DHT22;14557;0.000;0.000;2024-01-15T00:58:22;20.70;53.90
27016;DHT22;14557;0.000;0.000;2024-01-15T01:00:48;20.70;54.00
27016;DHT22;14557;0.000;0.000;2024-01-15T01:03:14;20.70;53.90
27016;DHT22;14557;0.000;0.000;2024-01-15T01:05:39;20.60;54.10
27016;DHT22;14557;0.000;0.000;2024-01-15T01:08:05;20.60;54.10
27016;DHT22;14557;0.000;0.000;2024-01-15T01:10:31;20.60;53.90
27016;DHT22;14557;0.000;0.000;2024-01-15T01:12:57;20.60;53.90
27016;DHT22;14557;0.000;0.000;2024-01-15T01:15:23;20.60;54.10
27016;DHT22;14557;0.000;0.000;2024-01-15T01:17:50;20.50;54.10
27016;DHT22;14557;0.000;0.000;2024-01-15T01:20:16;20.60;54.20
27016;DHT22;14557;0.000;0.000;2024-01-15T01:22:41;20.60;54.60
27016;DHT22;14557;0.000;0.000;2024-01-15T01:25:07;20.50;54.00
27016;DHT22;14557;0.000;0.000;2024-01-15T01:27:35;20.50;54.10
27016;DHT22;14557;0.000;0.000;2024-01-15T01:30:01;20.50;54.00
27016;DHT22;14557;0.000;0.000;2024-01-15T01:32:27;20.50;54.00
27016;DHT22;14557;0.000;0.000;2024-01-15T01:34:53;20.50;53.90
27016;DHT22;14557;0.000;0.000;2024-01-15T01:37:18;20.40;54.10
27016;DHT22;14557;0.000;0.000;2024-01-15T01:39:44;20.40;53.90
27016;DHT22;14557;0.000;0.000;2024-01-15T01:42:10;20.40;53.80
27016;DHT22;14557;0.000;0.000;2024-01-15T01:44:37;20.40;53.70
27016;DHT22;14557;0.000;0.000;2024-01-15T01:47:03;20.40;53.70
27016;DHT22;14557;0.000;0.000;2024-01-15T01:49:30;20.30;53.60
27016;DHT22;14557;0.000;0.000;2024-01-15T01:52:00;20.30;53.50
27016;DHT22;14557;0.000;0.000;2024-01-15T01:54:29;20.30;53.80
27016;DHT22;14557;0.000;0.000;2024-01-15T01:56:57;20.30;54.10
27016;DHT22;14557;0.000;0.000;2024-01-15T01:59:25;20.20;53.20
27016;DHT22;14557;0.000;0.000;2024-01-15T02:01:51;20.20;53.40
27016;DHT22;14557;0.000;0.000;2024-01-15T02:04:18;20.20;53.60
27016;DHT22;14557;0.000;0.000;2024-01-15T02:06:44;20.20;52.80
27016;DHT22;14557;0.000;0.000;2024-01-15T02:09:11;20.20;51.90
27016;DHT22;14557;0.000;0.000;2024-01-15T02:11:41;20.20;52.30
27016;DHT22;14557;0.000;0.000;2024-01-15T02:14:07;20.10;52.10
27016;DHT22;14557;0.000;0.000;2024-01-15T02:16:33;20.10;51.70
27016;DHT22;14557;0.000;0.000;2024-01-15T02:18:58;20.10;51.30
27016;DHT22;14557;0.000;0.000;2024-01-15T02:21:24;20.10;51.40
27016;DHT22;14557;0.000;0.000;2024-01-15T02:23:51;20.10;51.30
27016;DHT22;14557;0.000;0.000;2024-01-15T02:26:17;20.00;51.20
27016;DHT22;14557;0.000;0.000;2024-01-15T02:28:43;20.00;51.20
27016;DHT22;14557;0.000;0.000;2024-01-15T02:31:10;20.00;51.10
27016;DHT22;14557;0.000;0.000;2024-01-15T02:33:35;20.00;51.10
27016;DHT22;14557;0.000;0.000;2024-01-15T02:36:01;19.90;51.10
27016;DHT22;14557;0.000;0.000;2024-01-15T02:38:27;19.90;51.40
27016;DHT22;14557;0.000;0.000;2024-01-15T02:40:53;19.90;51.30
27016;DHT22;14557;0.000;0.000;2024-01-15T02:43:19;19.90;51.40
27016;DHT22;14557;0.000;0.000;2024-01-15T02:45:45;19.80;51.10
27016;DHT22;14557;0.000;0.000;2024-01-15T02:48:12;19.80;51.20
27016;DHT22;14557;0.000;0.000;2024-01-15T02:50:38;19.80;51.20
27016;DHT22;14557;0.000;0.000;2024-01-15T02:53:04;19.70;51.30
27016;DHT22;14557;0.000;0.000;2024-01-15T02:55:30;19.80;51.20
27016;DHT22;14557;0.000;0.000;2024-01-15T02:57:55;19.70;51.20
27016;DHT22;14557;0.000;0.000;2024-01-15T03:00:21;19.70;51.20
27016;DHT22;14557;0.000;0.000;2024-01-15T03:02:48;19.60;51.30
27016;DHT22;14557;0.000;0.000;2024-01-15T03:05:15;19.60;51.50
27016;DHT22;14557;0.000;0.000;2024-01-15T03:07:41;19.60;51.40
27016;DHT22;14557;0.000;0.000;2024-01-15T03:10:07;19.60;51.20
27016;DHT22;14557;0.000;0.000;2024-01-15T03:12:33;19.60;51.40
27016;DHT22;14557;0.000;0.000;2024-01-15T03:14:59;19.50;51.40
27016;DHT22;14557;0.000;0.000;2024-01-15T03:17:25;19.50;51.20
27016;DHT22;14557;0.000;0.000;2024-01-15T03:19:50;19.50;51.50
27016;DHT22;14557;0.000;0.000;2024-01-15T03:22:17;19.40;51.40
27016;DHT22;14557;0.000;0.000;2024-01-15T03:24:43;19.40;51.50
27016;DHT22;14557;0.000;0.000;2024-01-15T03:27:09;19.40;51.50
27016;DHT22;14557;0.000;0.000;2024-01-15T03:29:35;19.40;51.60
27016;DHT22;14557;0.000;0.000;2024-01-15T03:32:00;19.30;51.40
27016;DHT22;14557;0.000;0.000;2024-01-15T03:34:26;19.30;51.50
27016;DHT22;14557;0.000;0.000;2024-01-15T03:36:52;19.30;51.30
27016;DHT22;14557;0.000;0.000;2024-01-15T03:39:18;19.20;51.40
27016;DHT22;14557;0.000;0.000;2024-01-15T03:41:43;19.20;51.20
27016;DHT22;14557;0.000;0.000;2024-01-15T03:44:09;19.20;51.30
27016;DHT22;14557;0.000;0.000;2024-01-15T03:46:35;19.20;51.30
27016;DHT22;14557;0.000;0.000;2024-01-15T03:49:00;19.10;51.40
27016;DHT22;14557;0.000;0.000;2024-01-15T03:51:26;19.10;51.30
27016;DHT22;14557;0.000;0.000;2024-01-15T03:53:52;19.10;51.50
27016;DHT22;14557;0.000;0.000;2024-01-15T03:56:17;19.10;51.50
27016;DHT22;14557;0.000;0.000;2024-01-15T03:58:43;19.10;51.60
27016;DHT22;14557;0.000;0.000;2024-01-15T04:01:09;19.00;51.70
27016;DHT22;14557;0.000;0.000;2024-01-15T04:03:35;19.00;51.60
27016;DHT22;14557;0.000;0.000;2024-01-15T04:06:01;19.00;51.90
27016;DHT22;14557;0.000;0.000;2024-01-15T04:08:27;19.00;51.80
27016;DHT22;14557;0.000;0.000;2024-01-15T04:10:53;19.00;51.80
27016;DHT22;14557;0.000;0.000;2024-01-15T04:13:18;18.90;51.80
27016;DHT22;14557;0.000;0.000;2024-01-15T04:15:44;18.90;52.10
27016;DHT22;14557;0.000;0.000;2024-01-15T04:18:10;18.90;51.80
27016;DHT22;14557;0.000;0.000;2024-01-15T04:20:36;18.90;52.00
27016;DHT22;14557;0.000;0.000;2024-01-15T04:23:01;18.90;51.70
27016;DHT22;14557;0.000;0.000;2024-01-15T04:25:27;18.80;51.90
27016;DHT22;14557;0.000;0.000;2024-01-15T04:27:53;18.80;51.40
27016;DHT22;14557;0.000;0.000;2024-01-15T04:30:19;18.80;51.60
27016;DHT22;14557;0.000;0.000;2024-01-15T04:32:44;18.70;51.90
27016;DHT22;14557;0.000;0.000;2024-01-15T04:35:10;18.70;51.30
27016;DHT22;14557;0.000;0.000;2024-01-15T04:37:36;18.70;51.30
27016;DHT22;14557;0.000;0.000;2024-01-15T04:40:02;18.70;51.30
27016;DHT22;14557;0.000;0.000;2024-01-15T04:42:29;18.60;51.40
27016;DHT22;14557;0.000;0.000;2024-01-15T04:44:55;18.60;51.40
27016;DHT22;14557;0.000;0.000;2024-01-15T04:47:20;18.60;51.50
27016;DHT22;14557;0.000;0.000;2024-01-15T04:49:46;18.50;51.30
27016;DHT22;14557;0.000;0.000;2024-01-15T04:52:13;18.50;51.50
27016;DHT22;14557;0.000;0.000;2024-01-15T04:54:39;18.50;51.90
27016;DHT22;14557;0.000;0.000;2024-01-15T04:57:04;18.50;51.80
27016;DHT22;14557;0.000;0.000;2024-01-15T04:59:30;18.40;52.00
27016;DHT22;14557;0.000;0.000;2024-01-15T05:01:56;18.40;52.20
27016;DHT22;14557;0.000;0.000;2024-01-15T05:04:23;18.40;52.20
27016;DHT22;14557;0.000;0.000;2024-01-15T05:06:50;18.30;52.00
27016;DHT22;14557;0.000;0.000;2024-01-15T05:09:16;18.30;52.10
27016;DHT22;14557;0.000;0.000;2024-01-15T05:11:43;18.30;52.30
27016;DHT22;14557;0.000;0.000;2024-01-15T05:14:09;18.30;52.20
27016;DHT22;14557;0.000;0.000;2024-01-15T05:16:35;18.30;52.60
27016;DHT22;14557;0.000;0.000;2024-01-15T05:19:00;18.30;52.60
27016;DHT22;14557;0.000;0.000;2024-01-15T05:21:26;18.20;52.80
27016;DHT22;14557;0.000;0.000;2024-01-15T05:23:52;18.20;52.90
27016;DHT22;14557;0.000;0.000;2024-01-15T05:26:17;18.20;53.10
27016;DHT22;14557;0.000;0.000;2024-01-15T05:28:43;18.20;53.00
27016;DHT22;14557;0.000;0.000;2024-01-15T05:31:09;18.20;53.10
27016;DHT22;14557;0.000;0.000;2024-01-15T05:33:36;18.20;53.30
27016;DHT22;14557;0.000;0.000;2024-01-15T05:36:02;18.10;53.30
27016;DHT22;14557;0.000;0.000;2024-01-15T05:38:28;18.10;53.40
27016;DHT22;14557;0.000;0.000;2024-01-15T05:40:54;18.10;53.40
27016;DHT22;14557;0.000;0.000;2024-01-15T05:43:19;18.10;53.30
27016;DHT22;14557;0.000;0.000;2024-01-15T05:45:45;18.10;53.50
27016;DHT22;14557;0.000;0.000;2024-01-15T05:48:12;18.00;53.40
27016;DHT22;14557;0.000;0.000;2024-01-15T05:50:38;18.00;53.60
27016;DHT22;14557;0.000;0.000;2024-01-15T05:53:04;18.00;53.50
27016;DHT22;14557;0.000;0.000;2024-01-15T05:55:30;18.00;53.70
27016;DHT22;14557;0.000;0.000;2024-01-15T05:57:55;18.00;53.80
27016;DHT22;14557;0.000;0.000;2024-01-15T06:00:21;18.00;53.70
27016;DHT22;14557;0.000;0.000;2024-01-15T06:02:47;18.00;53.70
27016;DHT22;14557;0.000;0.000;2024-01-15T06:05:13;17.90;53.60
27016;DHT22;14557;0.000;0.000;2024-01-15T06:07:39;17.90;53.70
27016;DHT22;14557;0.000;0.000;2024-01-15T06:10:05;17.90;53.70
27016;DHT22;14557;0.000;0.000;2024-01-15T06:12:31;17.90;53.70
27016;DHT22;14557;0.000;0.000;2024-01-15T06:14:58;17.90;53.70
27016;DHT22;14557;0.000;0.000;2024-01-15T06:17:23;17.80;53.70
27016;DHT22;14557;0.000;0.000;2024-01-15T06:19:49;17.80;53.70
27016;DHT22;14557;0.000;0.000;2024-01-15T06:22:15;17.80;53.70
27016;DHT22;14557;0.000;0.000;2024-01-15T06:24:41;17.80;53.80
27016;DHT22;14557;0.000;0.000;2024-01-15T06:27:07;17.80;53.70
27016;DHT22;14557;0.000;0.000;2024-01-15T06:29:33;17.80;53.90
27016;DHT22;14557;0.000;0.000;2024-01-15T06:31:58;17.70;53.80
27016;DHT22;14557;0.000;0.000;2024-01-15T06:34:24;17.70;53.80
27016;DHT22;14557;0.000;0.000;2024-01-15T06:36:50;17.70;53.90
27016;DHT22;14557;0.000;0.000;2024-01-15T06:39:15;17.70;53.90
27016;DHT22;14557;0.000;0.000;2024-01-15T06:41:41;17.70;54.00
27016;DHT22;14557;0.000;0.000;2024-01-15T06:44:12;17.60;53.70
27016;DHT22;14557;0.000;0.000;2024-01-15T06:46:44;17.60;53.90
27016;DHT22;14557;0.000;0.000;2024-01-15T06:49:11;17.60;53.90
27016;DHT22;14557;0.000;0.000;2024-01-15T06:51:37;17.60;53.90
27016;DHT22;14557;0.000;0.000;2024-01-15T06:54:03;17.60;53.90
27016;DHT22;14557;0.000;0.000;2024-01-15T06:56:29;17.60;54.00
27016;DHT22;14557;0.000;0.000;2024-01-15T06:58:55;17.60;53.90
27016;DHT22;14557;0.000;0.000;2024-01-15T07:01:20;17.50;54.00
27016;DHT22;14557;0.000;0.000;2024-01-15T07:03:46;17.50;53.90
27016;DHT22;14557;0.000;0.000;2024-01-15T07:06:12;17.50;53.90
27016;DHT22;14557;0.000;0.000;2024-01-15T07:08:39;17.50;53.90
27016;DHT22;14557;0.000;0.000;2024-01-15T07:11:05;17.50;53.90
27016;DHT22;14557;0.000;0.000;2024-01-15T07:13:31;17.50;53.90
27016;DHT22;14557;0.000;0.000;2024-01-15T07:15:57;17.40;53.90
27016;DHT22;14557;0.000;0.000;2024-01-15T07:18:23;17.40;53.90
27016;DHT22;14557;0.000;0.000;2024-01-15T07:20:49;17.40;53.70
27016;DHT22;14557;0.000;0.000;2024-01-15T07:23:15;17.40;53.80
27016;DHT22;14557;0.000;0.000;2024-01-15T07:25:41;17.40;53.70
27016;DHT22;14557;0.000;0.000;2024-01-15T07:28:06;17.40;53.80
27016;DHT22;14557;0.000;0.000;2024-01-15T07:30:32;17.30;53.80
27016;DHT22;14557;0.000;0.000;2024-01-15T07:32:58;17.30;53.80
27016;DHT22;14557;0.000;0.000;2024-01-15T07:35:24;17.30;53.70
27016;DHT22;14557;0.000;0.000;2024-01-15T07:37:49;17.30;53.60
27016;DHT22;14557;0.000;0.000;2024-01-15T07:40:15;17.30;53.90
27016;DHT22;14557;0.000;0.000;2024-01-15T07:42:41;17.20;53.80
27016;DHT22;14557;0.000;0.000;2024-01-15T07:45:10;17.20;53.80
27016;DHT22;14557;0.000;0.000;2024-01-15T07:47:35;17.20;53.80
27016;DHT22;14557;0.000;0.000;2024-01-15T07:50:01;17.20;53.80
27016;DHT22;14557;0.000;0.000;2024-01-15T07:52:27;17.10;53.70
27016;DHT22;14557;0.000;0.000;2024-01-15T07:54:53;17.10;53.70
27016;DHT22;14557;0.000;0.000;2024-01-15T07:57:19;17.10;53.70
27016;DHT22;14557;0.000;0.000;2024-01-15T07:59:44;17.10;53.70
27016;DHT22;14557;0.000;0.000;2024-01-15T08:02:10;17.10;53.70
27016;DHT22;14557;0.000;0.000;2024-01-15T08:04:39;17.10;53.70
27016;DHT22;14557;0.000;0.000;2024-01-15T08:07:05;17.10;53.70
27016;DHT22;14557;0.000;0.000;2024-01-15T08:09:32;17.10;53.60
27016;DHT22;14557;0.000;0.000;2024-01-15T08:11:58;17.00;53.60
27016;DHT22;14557;0.000;0.000;2024-01-15T08:14:24;17.10;54.20
27016;DHT22;14557;0.000;0.000;2024-01-15T08:16:49;17.00;54.40
27016;DHT22;14557;0.000;0.000;2024-01-15T08:19:16;17.10;56.40
27016;DHT22;14557;0.000;0.000;2024-01-15T08:21:42;17.10;56.10
27016;DHT22;14557;0.000;0.000;2024-01-15T08:24:08;17.10;59.30
27016;DHT22;14557;0.000;0.000;2024-01-15T08:26:34;17.10;61.30
27016;DHT22;14557;0.000;0.000;2024-01-15T08:29:00;17.20;60.30
27016;DHT22;14557;0.000;0.000;2024-01-15T08:31:25;17.20;59.40
27016;DHT22;14557;0.000;0.000;2024-01-15T08:33:51;17.30;59.80
27016;DHT22;14557;0.000;0.000;2024-01-15T08:36:18;17.30;58.30
27016;DHT22;14557;0.000;0.000;2024-01-15T08:38:43;17.30;57.70
27016;DHT22;14557;0.000;0.000;2024-01-15T08:41:10;17.30;57.40
27016;DHT22;14557;0.000;0.000;2024-01-15T08:43:36;17.40;57.60
27016;DHT22;14557;0.000;0.000;2024-01-15T08:46:02;17.40;57.30
27016;DHT22;14557;0.000;0.000;2024-01-15T08:48:28;17.30;57.10
27016;DHT22;14557;0.000;0.000;2024-01-15T08:50:54;17.40;57.90
27016;DHT22;14557;0.000;0.000;2024-01-15T08:53:21;17.40;60.40
27016;DHT22;14557;0.000;0.000;2024-01-15T08:55:47;17.40;58.30
27016;DHT22;14557;0.000;0.000;2024-01-15T08:58:13;17.40;57.60
27016;DHT22;14557;0.000;0.000;2024-01-15T09:00:39;17.40;57.60
27016;DHT22;14557;0.000;0.000;2024-01-15T09:03:05;17.30;57.00
27016;DHT22;14557;0.000;0.000;2024-01-15T09:05:31;17.30;56.40
27016;DHT22;14557;0.000;0.000;2024-01-15T09:07:57;17.30;57.80
27016;DHT22;14557;0.000;0.000;2024-01-15T09:10:23;17.40;59.40
27016;DHT22;14557;0.000;0.000;2024-01-15T09:12:49;17.40;62.10
27016;DHT22;14557;0.000;0.000;2024-01-15T09:15:15;17.40;63.70
27016;DHT22;14557;0.000;0.000;2024-01-15T09:17:41;17.40;60.50
27016;DHT22;14557;0.000;0.000;2024-01-15T09:20:08;17.40;58.90
27016;DHT22;14557;0.000;0.000;2024-01-15T09:22:35;17.30;58.10
27016;DHT22;14557;0.000;0.000;2024-01-15T09:25:03;17.40;57.50
27016;DHT22;14557;0.000;0.000;2024-01-15T09:27:29;17.40;57.50
27016;DHT22;14557;0.000;0.000;2024-01-15T09:29:55;17.40;59.80
27016;DHT22;14557;0.000;0.000;2024-01-15T09:32:21;17.50;59.90
27016;DHT22;14557;0.000;0.000;2024-01-15T09:34:47;17.40;58.90
27016;DHT22;14557;0.000;0.000;2024-01-15T09:37:14;17.50;59.60
27016;DHT22;14557;0.000;0.000;2024-01-15T09:39:40;17.50;59.90
27016;DHT22;14557;0.000;0.000;2024-01-15T09:42:06;17.50;58.50
27016;DHT22;14557;0.000;0.000;2024-01-15T09:44:32;17.50;57.50
27016;DHT22;14557;0.000;0.000;2024-01-15T09:46:59;17.50;56.90
27016;DHT22;14557;0.000;0.000;2024-01-15T09:49:25;17.50;56.40
27016;DHT22;14557;0.000;0.000;2024-01-15T09:51:51;17.50;56.10
27016;DHT22;14557;0.000;0.000;2024-01-15T09:54:17;17.50;56.00
27016;DHT22;14557;0.000;0.000;2024-01-15T09:56:51;17.50;56.00
27016;DHT22;14557;0.000;0.000;2024-01-15T09:59:18;17.50;55.80
27016;DHT22;14557;0.000;0.000;2024-01-15T10:01:45;17.50;55.60
27016;DHT22;14557;0.000;0.000;2024-01-15T10:04:11;17.60;55.80
27016;DHT22;14557;0.000;0.000;2024-01-15T10:06:38;17.60;55.60
27016;DHT22;14557;0.000;0.000;2024-01-15T10:09:05;17.60;55.70
27016;DHT22;14557;0.000;0.000;2024-01-15T10:11:33;17.70;55.60
27016;DHT22;14557;0.000;0.000;2024-01-15T10:13:59;17.70;55.40
27016;DHT22;14557;0.000;0.000;2024-01-15T10:16:26;17.80;55.30
27016;DHT22;14557;0.000;0.000;2024-01-15T10:18:51;17.80;55.00
27016;DHT22;14557;0.000;0.000;2024-01-15T10:21:17;17.80;54.80
27016;DHT22;14557;0.000;0.000;2024-01-15T10:23:43;17.90;54.60
27016;DHT22;14557;0.000;0.000;2024-01-15T10:26:09;17.90;54.50
27016;DHT22;14557;0.000;0.000;2024-01-15T10:28:37;17.90;54.30
27016;DHT22;14557;0.000;0.000;2024-01-15T10:31:03;18.00;54.20
27016;DHT22;14557;0.000;0.000;2024-01-15T10:33:29;18.00;54.20
27016;DHT22;14557;0.000;0.000;2024-01-15T10:35:59;18.10;54.20
27016;DHT22;14557;0.000;0.000;2024-01-15T10:38:26;18.10;54.20
27016;DHT22;14557;0.000;0.000;2024-01-15T10:40:53;18.20;54.40
27016;DHT22;14557;0.000;0.000;2024-01-15T10:43:19;18.30;54.10
27016;DHT22;14557;0.000;0.000;2024-01-15T10:45:46;18.40;55.60
27016;DHT22;14557;0.000;0.000;2024-01-15T10:48:13;18.40;54.70
27016;DHT22;14557;0.000;0.000;2024-01-15T10:50:39;18.50;54.50
27016;DHT22;14557;0.000;0.000;2024-01-15T10:53:05;18.50;53.80
27016;DHT22;14557;0.000;0.000;2024-01-15T10:55:31;18.50;53.60
27016;DHT22;14557;0.000;0.000;2024-01-15T10:57:59;18.50;53.50
27016;DHT22;14557;0.000;0.000;2024-01-15T11:00:26;18.60;53.20
27016;DHT22;14557;0.000;0.000;2024-01-15T11:02:52;18.60;53.10
27016;DHT22;14557;0.000;0.000;2024-01-15T11:05:21;18.60;53.10
27016;DHT22;14557;0.000;0.000;2024-01-15T11:07:55;18.70;53.10
27016;DHT22;14557;0.000;0.000;2024-01-15T11:10:47;18.70;52.90
27016;DHT22;14557;0.000;0.000;2024-01-15T11:13:19;18.70;52.90
27016;DHT22;14557;0.000;0.000;2024-01-15T11:15:57;18.80;52.70
27016;DHT22;14557;0.000;0.000;2024-01-15T11:18:27;18.80;52.50
27016;DHT22;14557;0.000;0.000;2024-01-15T11:23:53;18.80;52.50
27016;DHT22;14557;0.000;0.000;2024-01-15T11:29:28;18.90;52.40
27016;DHT22;14557;0.000;0.000;2024-01-15T11:31:59;18.90;52.20
27016;DHT22;14557;0.000;0.000;2024-01-15T11:37:21;19.00;51.90
27016;DHT22;14557;0.000;0.000;2024-01-15T11:39:51;19.00;51.90
27016;DHT22;14557;0.000;0.000;2024-01-15T11:42:17;19.00;51.60
27016;DHT22;14557;0.000;0.000;2024-01-15T11:44:44;19.00;51.50
27016;DHT22;14557;0.000;0.000;2024-01-15T11:47:11;19.10;51.40
27016;DHT22;14557;0.000;0.000;2024-01-15T11:49:59;19.10;51.60
27016;DHT22;14557;0.000;0.000;2024-01-15T11:52:35;19.10;51.50
27016;DHT22;14557;0.000;0.000;2024-01-15T11:57:42;19.20;51.50
27016;DHT22;14557;0.000;0.000;2024-01-15T12:00:10;19.20;52.20
27016;DHT22;14557;0.000;0.000;2024-01-15T12:02:40;19.30;53.20
27016;DHT22;14557;0.000;0.000;2024-01-15T12:05:08;19.30;51.40
27016;DHT22;14557;0.000;0.000;2024-01-15T12:07:33;19.30;51.00
27016;DHT22;14557;0.000;0.000;2024-01-15T12:10:01;19.40;50.90
27016;DHT22;14557;0.000;0.000;2024-01-15T12:12:44;19.50;51.90
27016;DHT22;14557;0.000;0.000;2024-01-15T12:15:12;19.60;51.20
27016;DHT22;14557;0.000;0.000;2024-01-15T12:17:38;19.70;50.70
27016;DHT22;14557;0.000;0.000;2024-01-15T12:20:05;19.70;50.30
27016;DHT22;14557;0.000;0.000;2024-01-15T12:22:31;19.70;50.60
27016;DHT22;14557;0.000;0.000;2024-01-15T12:24:57;19.80;50.70
27016;DHT22;14557;0.000;0.000;2024-01-15T12:27:23;19.80;50.80
27016;DHT22;14557;0.000;0.000;2024-01-15T12:29:49;19.80;51.20
27016;DHT22;14557;0.000;0.000;2024-01-15T12:32:15;19.90;51.60
27016;DHT22;14557;0.000;0.000;2024-01-15T12:34:41;20.00;51.60
27016;DHT22;14557;0.000;0.000;2024-01-15T12:37:09;20.10;51.10
27016;DHT22;14557;0.000;0.000;2024-01-15T12:39:37;20.20;51.00
27016;DHT22;14557;0.000;0.000;2024-01-15T12:42:03;20.30;50.60
27016;DHT22;14557;0.000;0.000;2024-01-15T12:44:31;20.50;50.40
27016;DHT22;14557;0.000;0.000;2024-01-15T12:46:57;20.60;50.70
27016;DHT22;14557;0.000;0.000;2024-01-15T12:49:24;20.70;50.30
27016;DHT22;14557;0.000;0.000;2024-01-15T12:51:53;20.80;51.10
27016;DHT22;14557;0.000;0.000;2024-01-15T12:54:20;20.90;49.40
27016;DHT22;14557;0.000;0.000;2024-01-15T12:56:45;20.90;49.60
27016;DHT22;14557;0.000;0.000;2024-01-15T12:59:11;20.90;49.40
27016;DHT22;14557;0.000;0.000;2024-01-15T13:01:38;21.00;49.20
27016;DHT22;14557;0.000;0.000;2024-01-15T13:04:04;20.90;49.10
27016;DHT22;14557;0.000;0.000;2024-01-15T13:06:34;20.90;49.30
27016;DHT22;14557;0.000;0.000;2024-01-15T13:09:00;20.90;49.10
27016;DHT22;14557;0.000;0.000;2024-01-15T13:11:27;20.90;48.90
27016;DHT22;14557;0.000;0.000;2024-01-15T13:13:53;20.90;48.50
27016;DHT22;14557;0.000;0.000;2024-01-15T13:16:19;20.90;48.50
27016;DHT22;14557;0.000;0.000;2024-01-15T13:18:46;21.00;48.20
27016;DHT22;14557;0.000;0.000;2024-01-15T13:21:12;21.00;48.20
27016;DHT22;14557;0.000;0.000;2024-01-15T13:23:38;21.00;47.90
27016;DHT22;14557;0.000;0.000;2024-01-15T13:26:04;21.00;47.90
27016;DHT22;14557;0.000;0.000;2024-01-15T13:28:30;21.00;47.70
27016;DHT22;14557;0.000;0.000;2024-01-15T13:30:56;21.00;47.80
27016;DHT22;14557;0.000;0.000;2024-01-15T13:33:22;21.00;47.70
27016;DHT22;14557;0.000;0.000;2024-01-15T13:35:48;21.00;47.80
27016;DHT22;14557;0.000;0.000;2024-01-15T13:38:15;21.00;51.60
27016;DHT22;14557;0.000;0.000;2024-01-15T13:40:41;21.10;48.70
27016;DHT22;14557;0.000;0.000;2024-01-15T13:43:07;21.10;48.40
27016;DHT22;14557;0.000;0.000;2024-01-15T13:45:34;21.00;48.80
27016;DHT22;14557;0.000;0.000;2024-01-15T13:48:01;21.00;48.40
27016;DHT22;14557;0.000;0.000;2024-01-15T13:50:26;21.00;47.50
27016;DHT22;14557;0.000;0.000;2024-01-15T13:52:53;21.00;48.20
27016;DHT22;14557;0.000;0.000;2024-01-15T13:55:18;21.00;47.60
27016;DHT22;14557;0.000;0.000;2024-01-15T13:57:45;20.90;48.80
27016;DHT22;14557;0.000;0.000;2024-01-15T14:00:11;20.90;48.20
27016;DHT22;14557;0.000;0.000;2024-01-15T14:02:37;20.90;47.60
27016;DHT22;14557;0.000;0.000;2024-01-15T14:05:03;20.90;47.20
27016;DHT22;14557;0.000;0.000;2024-01-15T14:07:29;20.90;47.10
27016;DHT22;14557;0.000;0.000;2024-01-15T14:09:55;20.90;47.00
27016;DHT22;14557;0.000;0.000;2024-01-15T14:12:20;20.90;46.90
27016;DHT22;14557;0.000;0.000;2024-01-15T14:14:47;20.90;46.70
27016;DHT22;14557;0.000;0.000;2024-01-15T14:17:13;20.80;46.70
27016;DHT22;14557;0.000;0.000;2024-01-15T14:19:39;20.80;47.10
27016;DHT22;14557;0.000;0.000;2024-01-15T14:22:04;20.70;46.90
27016;DHT22;14557;0.000;0.000;2024-01-15T14:24:30;20.80;46.90
27016;DHT22;14557;0.000;0.000;2024-01-15T14:26:56;20.80;46.60
27016;DHT22;14557;0.000;0.000;2024-01-15T14:29:22;20.70;47.00
27016;DHT22;14557;0.000;0.000;2024-01-15T14:31:51;20.70;47.20
27016;DHT22;14557;0.000;0.000;2024-01-15T14:34:17;20.60;47.50
27016;DHT22;14557;0.000;0.000;2024-01-15T14:36:43;20.60;46.90
27016;DHT22;14557;0.000;0.000;2024-01-15T14:39:09;20.70;46.60
27016;DHT22;14557;0.000;0.000;2024-01-15T14:41:35;20.60;46.50
27016;DHT22;14557;0.000;0.000;2024-01-15T14:44:01;20.60;46.50
27016;DHT22;14557;0.000;0.000;2024-01-15T14:46:27;20.60;46.50
27016;DHT22;14557;0.000;0.000;2024-01-15T14:48:53;20.60;46.40
27016;DHT22;14557;0.000;0.000;2024-01-15T14:51:19;20.50;46.20
27016;DHT22;14557;0.000;0.000;2024-01-15T14:53:45;20.50;46.20
27016;DHT22;14557;0.000;0.000;2024-01-15T14:56:10;20.50;46.30
27016;DHT22;14557;0.000;0.000;2024-01-15T14:58:36;20.50;46.60
27016;DHT22;14557;0.000;0.000;2024-01-15T15:01:02;20.40;46.50
27016;DHT22;14557;0.000;0.000;2024-01-15T15:03:29;20.40;47.50
27016;DHT22;14557;0.000;0.000;2024-01-15T15:05:55;20.40;46.70
27016;DHT22;14557;0.000;0.000;2024-01-15T15:08:20;20.30;46.70
27016;DHT22;14557;0.000;0.000;2024-01-15T15:10:46;20.30;46.90
27016;DHT22;14557;0.000;0.000;2024-01-15T15:13:12;20.30;46.90
27016;DHT22;14557;0.000;0.000;2024-01-15T15:15:38;20.20;46.80
27016;DHT22;14557;0.000;0.000;2024-01-15T15:18:03;20.20;46.80
27016;DHT22;14557;0.000;0.000;2024-01-15T15:20:29;20.20;47.70
27016;DHT22;14557;0.000;0.000;2024-01-15T15:22:55;20.10;47.90
27016;DHT22;14557;0.000;0.000;2024-01-15T15:25:21;20.10;48.10
27016;DHT22;14557;0.000;0.000;2024-01-15T15:27:48;20.00;47.70
27016;DHT22;14557;0.000;0.000;2024-01-15T15:30:13;20.00;47.50
27016;DHT22;14557;0.000;0.000;2024-01-15T15:32:39;20.00;47.80
27016;DHT22;14557;0.000;0.000;2024-01-15T15:35:05;20.00;47.50
27016;DHT22;14557;0.000;0.000;2024-01-15T15:37:31;20.00;47.80
27016;DHT22;14557;0.000;0.000;2024-01-15T15:39:57;20.00;48.30
27016;DHT22;14557;0.000;0.000;2024-01-15T15:42:24;19.90;48.00
27016;DHT22;14557;0.000;0.000;2024-01-15T15:44:50;19.90;47.60
27016;DHT22;14557;0.000;0.000;2024-01-15T15:47:16;19.90;48.10
27016;DHT22;14557;0.000;0.000;2024-01-15T15:49:42;19.80;48.00
27016;DHT22;14557;0.000;0.000;2024-01-15T15:52:08;19.80;48.10